sensor_id;sensor_type;location;lat;lon;timestamp;pressure;altitude;pressure_sealevel;temperature;humidity
63654;BME280;49809;47.418;19.080;2022-10-26T00:02:53;100989.31;;;7.40;100.00
63654;BME280;49809;47.418;19.080;2022-10-26T00:06:02;100993.34;;;7.42;100.00
63654;BME280;49809;47.418;19.080;2022-10-26T00:09:05;100985.06;;;7.39;100.00
63654;BME280;49809;47.418;19.080;2022-10-26T00:12:08;100990.31;;;7.39;100.00
63654;BME280;49809;47.418;19.080;2022-10-26T00:15:11;100985.25;;;7.37;100.00
63654;BME280;49809;47.418;19.080;2022-10-26T00:18:17;101002.84;;;7.43;100.00
63654;BME280;49809;47.418;19.080;2022-10-26T00:21:22;101009.47;;;7.53;100.00
63654;BME280;49809;47.418;19.080;2022-10-26T00:24:25;101001.19;;;7.49;100.00
63654;BME280;49809;47.418;19.080;2022-10-26T00:27:30;101017.22;;;7.48;100.00
63654;BME280;49809;47.418;19.080;2022-10-26T00:30:39;101008.66;;;7.52;100.00
63654;BME280;49809;47.418;19.080;2022-10-26T00:33:42;101014.94;;;7.51;100.00
63654;BME280;49809;47.418;19.080;2022-10-26T00:36:45;101007.47;;;7.48;100.00
63654;BME280;49809;47.418;19.080;2022-10-26T00:39:48;101011.56;;;7.44;100.00
63654;BME280;49809;47.418;19.080;2022-10-26T00:42:53;100998.81;;;7.41;100.00
63654;BME280;49809;47.418;19.080;2022-10-26T00:45:57;101001.44;;;7.41;100.00
63654;BME280;49809;47.418;19.080;2022-10-26T00:49:13;100998.03;;;7.40;100.00
63654;BME280;49809;47.418;19.080;2022-10-26T00:52:20;101000.06;;;7.38;100.00
63654;BME280;49809;47.418;19.080;2022-10-26T00:55:34;100997.25;;;7.33;100.00
63654;BME280;49809;47.418;19.080;2022-10-26T00:58:42;100997.25;;;7.33;100.00
63654;BME280;49809;47.418;19.080;2022-10-26T01:01:46;100998.69;;;7.29;100.00
63654;BME280;49809;47.418;19.080;2022-10-26T01:04:52;100995.06;;;7.30;100.00
63654;BME280;49809;47.418;19.080;2022-10-26T01:07:59;100995.44;;;7.27;100.00
63654;BME280;49809;47.418;19.080;2022-10-26T01:11:02;100996.25;;;7.28;100.00
63654;BME280;49809;47.418;19.080;2022-10-26T01:14:11;100999.53;;;7.23;100.00
63654;BME280;49809;47.418;19.080;2022-10-26T01:27:28;100993.34;;;7.11;100.00
63654;BME280;49809;47.418;19.080;2022-10-26T01:30:39;100994.19;;;7.05;100.00
63654;BME280;49809;47.418;19.080;2022-10-26T01:33:50;100994.19;;;7.05;100.00
63654;BME280;49809;47.418;19.080;2022-10-26T01:37:05;100991.34;;;7.07;100.00
63654;BME280;49809;47.418;19.080;2022-10-26T01:40:24;100998.03;;;7.03;100.00
63654;BME280;49809;47.418;19.080;2022-10-26T01:43:35;100993.56;;;7.03;100.00
63654;BME280;49809;47.418;19.080;2022-10-26T01:46:42;100983.47;;;7.00;100.00
63654;BME280;49809;47.418;19.080;2022-10-26T01:49:53;100982.28;;;6.96;100.00
63654;BME280;49809;47.418;19.080;2022-10-26T01:52:57;100977.84;;;6.96;100.00
63654;BME280;49809;47.418;19.080;2022-10-26T01:56:00;100980.22;;;6.98;100.00
63654;BME280;49809;47.418;19.080;2022-10-26T01:59:41;100986.13;;;6.93;100.00
63654;BME280;49809;47.418;19.080;2022-10-26T02:03:17;100979.47;;;6.91;100.00
63654;BME280;49809;47.418;19.080;2022-10-26T02:20:29;100978.12;;;6.75;100.00
63654;BME280;49809;47.418;19.080;2022-10-26T02:23:38;100972.06;;;6.75;100.00
63654;BME280;49809;47.418;19.080;2022-10-26T02:26:45;100976.31;;;6.69;100.00
63654;BME280;49809;47.418;19.080;2022-10-26T02:29:54;100973.50;;;6.64;100.00
63654;BME280;49809;47.418;19.080;2022-10-26T02:32:58;100970.94;;;6.58;100.00
63654;BME280;49809;47.418;19.080;2022-10-26T02:36:08;100979.22;;;6.54;100.00
63654;BME280;49809;47.418;19.080;2022-10-26T02:39:13;100978.41;;;6.54;100.00
63654;BME280;49809;47.418;19.080;2022-10-26T02:42:18;100978.41;;;6.54;100.00
63654;BME280;49809;47.418;19.080;2022-10-26T02:45:33;100993.81;;;6.50;100.00
63654;BME280;49809;47.418;19.080;2022-10-26T02:48:39;101007.38;;;6.47;100.00
63654;BME280;49809;47.418;19.080;2022-10-26T02:52:09;100999.87;;;6.44;100.00
63654;BME280;49809;47.418;19.080;2022-10-26T02:55:19;101005.56;;;6.41;100.00
63654;BME280;49809;47.418;19.080;2022-10-26T02:58:27;101007.78;;;6.44;100.00
63654;BME280;49809;47.418;19.080;2022-10-26T03:01:34;101002.75;;;6.36;100.00
63654;BME280;49809;47.418;19.080;2022-10-26T03:04:38;101004.75;;;6.34;100.00
63654;BME280;49809;47.418;19.080;2022-10-26T03:08:02;101001.97;;;6.29;100.00
63654;BME280;49809;47.418;19.080;2022-10-26T03:11:07;101007.22;;;6.29;100.00
63654;BME280;49809;47.418;19.080;2022-10-26T03:14:10;101008.44;;;6.33;100.00
63654;BME280;49809;47.418;19.080;2022-10-26T03:17:13;101018.12;;;6.26;100.00
63654;BME280;49809;47.418;19.080;2022-10-26T03:20:19;101009.25;;;6.27;100.00
63654;BME280;49809;47.418;19.080;2022-10-26T03:23:22;101018.31;;;6.31;100.00
63654;BME280;49809;47.418;19.080;2022-10-26T03:26:27;101014.50;;;6.27;100.00
63654;BME280;49809;47.418;19.080;2022-10-26T03:29:32;101014.50;;;6.27;100.00
63654;BME280;49809;47.418;19.080;2022-10-26T03:32:39;101009.25;;;6.27;100.00
63654;BME280;49809;47.418;19.080;2022-10-26T03:35:42;101013.06;;;6.25;100.00
63654;BME280;49809;47.418;19.080;2022-10-26T03:38:45;101015.94;;;6.23;100.00
63654;BME280;49809;47.418;19.080;2022-10-26T03:41:47;101026.03;;;6.26;100.00
63654;BME280;49809;47.418;19.080;2022-10-26T03:44:53;101018.56;;;6.23;100.00
63654;BME280;49809;47.418;19.080;2022-10-26T03:47:58;101026.63;;;6.22;100.00
63654;BME280;49809;47.418;19.080;2022-10-26T03:51:03;101019.75;;;6.21;100.00
63654;BME280;49809;47.418;19.080;2022-10-26T03:54:09;101033.91;;;6.26;100.00
63654;BME280;49809;47.418;19.080;2022-10-26T03:57:13;101037.53;;;6.25;100.00
63654;BME280;49809;47.418;19.080;2022-10-26T04:00:16;101038.34;;;6.26;100.00
63654;BME280;49809;47.418;19.080;2022-10-26T04:03:22;101036.34;;;6.21;100.00
63654;BME280;49809;47.418;19.080;2022-10-26T04:06:47;101043.66;;;6.19;100.00
63654;BME280;49809;47.418;19.080;2022-10-26T04:09:49;101052.94;;;6.15;100.00
63654;BME280;49809;47.418;19.080;2022-10-26T04:12:53;101042.59;;;6.20;100.00
63654;BME280;49809;47.418;19.080;2022-10-26T04:15:56;101053.53;;;6.17;100.00
63654;BME280;49809;47.418;19.080;2022-10-26T04:19:00;101056.16;;;6.17;100.00
63654;BME280;49809;47.418;19.080;2022-10-26T04:22:06;101051.31;;;6.07;100.00
63654;BME280;49809;47.418;19.080;2022-10-26T04:25:11;101048.09;;;6.12;100.00
63654;BME280;49809;47.418;19.080;2022-10-26T04:28:16;101046.69;;;6.03;100.00
63654;BME280;49809;47.418;19.080;2022-10-26T04:31:20;101045.25;;;6.00;100.00
63654;BME280;49809;47.418;19.080;2022-10-26T04:34:24;101044.66;;;6.05;100.00
63654;BME280;49809;47.418;19.080;2022-10-26T04:37:28;101040.81;;;6.01;100.00
63654;BME280;49809;47.418;19.080;2022-10-26T04:40:35;101041.63;;;6.08;100.00
63654;BME280;49809;47.418;19.080;2022-10-26T04:43:41;101044.47;;;6.00;100.00
63654;BME280;49809;47.418;19.080;2022-10-26T04:46:47;101051.72;;;5.98;100.00
63654;BME280;49809;47.418;19.080;2022-10-26T04:49:50;101051.13;;;5.96;100.00
63654;BME280;49809;47.418;19.080;2022-10-26T04:52:58;101032.72;;;5.96;100.00
63654;BME280;49809;47.418;19.080;2022-10-26T04:56:03;101032.34;;;5.99;100.00
63654;BME280;49809;47.418;19.080;2022-10-26T04:59:06;101027.47;;;6.09;100.00
63654;BME280;49809;47.418;19.080;2022-10-26T05:02:10;101025.84;;;6.01;100.00
63654;BME280;49809;47.418;19.080;2022-10-26T05:05:14;101036.78;;;6.05;100.00
63654;BME280;49809;47.418;19.080;2022-10-26T05:08:20;101044.84;;;6.03;100.00
63654;BME280;49809;47.418;19.080;2022-10-26T05:11:25;101046.06;;;6.01;100.00
63654;BME280;49809;47.418;19.080;2022-10-26T05:14:32;101052.56;;;6.05;100.00
63654;BME280;49809;47.418;19.080;2022-10-26T05:17:35;101051.94;;;6.03;100.00
63654;BME280;49809;47.418;19.080;2022-10-26T05:20:38;101056.78;;;6.06;100.00
63654;BME280;49809;47.418;19.080;2022-10-26T05:23:41;101055.56;;;6.08;100.00
63654;BME280;49809;47.418;19.080;2022-10-26T05:26:47;101057.41;;;6.08;100.00
63654;BME280;49809;47.418;19.080;2022-10-26T05:29:50;101072.75;;;6.11;100.00
63654;BME280;49809;47.418;19.080;2022-10-26T05:33:05;101063.66;;;6.14;100.00
63654;BME280;49809;47.418;19.080;2022-10-26T05:36:10;101065.06;;;6.23;100.00
63654;BME280;49809;47.418;19.080;2022-10-26T05:39:13;101064.03;;;6.30;100.00
63654;BME280;49809;47.418;19.080;2022-10-26T05:42:16;101065.44;;;6.39;100.00
63654;BME280;49809;47.418;19.080;2022-10-26T05:45:21;101067.84;;;6.54;100.00
63654;BME280;49809;47.418;19.080;2022-10-26T05:48:25;101070.25;;;6.55;100.00
63654;BME280;49809;47.418;19.080;2022-10-26T05:51:28;101071.06;;;6.63;100.00
63654;BME280;49809;47.418;19.080;2022-10-26T05:54:33;101081.37;;;6.71;100.00
63654;BME280;49809;47.418;19.080;2022-10-26T05:57:40;101090.03;;;6.78;100.00
63654;BME280;49809;47.418;19.080;2022-10-26T06:00:50;101080.50;;;6.90;100.00
63654;BME280;49809;47.418;19.080;2022-10-26T06:07:20;101093.97;;;7.13;100.00
63654;BME280;49809;47.418;19.080;2022-10-26T06:10:28;101083.63;;;7.18;100.00
63654;BME280;49809;47.418;19.080;2022-10-26T06:13:35;101090.25;;;7.27;100.00
63654;BME280;49809;47.418;19.080;2022-10-26T06:16:53;101104.41;;;7.39;100.00
63654;BME280;49809;47.418;19.080;2022-10-26T06:23:36;101108.56;;;7.54;100.00
63654;BME280;49809;47.418;19.080;2022-10-26T06:27:06;101104.31;;;7.53;100.00
63654;BME280;49809;47.418;19.080;2022-10-26T06:30:15;101111.16;;;7.60;100.00
63654;BME280;49809;47.418;19.080;2022-10-26T06:33:22;101116.75;;;7.70;100.00
63654;BME280;49809;47.418;19.080;2022-10-26T06:36:35;101112.00;;;7.85;100.00
63654;BME280;49809;47.418;19.080;2022-10-26T06:39:44;101112.50;;;8.01;100.00
63654;BME280;49809;47.418;19.080;2022-10-26T06:42:53;101115.78;;;7.96;100.00
63654;BME280;49809;47.418;19.080;2022-10-26T06:46:35;101118.41;;;8.27;100.00
63654;BME280;49809;47.418;19.080;2022-10-26T06:56:50;101133.97;;;8.04;100.00
63654;BME280;49809;47.418;19.080;2022-10-26T06:59:57;101136.09;;;8.20;100.00
63654;BME280;49809;47.418;19.080;2022-10-26T07:03:25;101139.25;;;8.29;100.00
63654;BME280;49809;47.418;19.080;2022-10-26T07:06:28;101134.34;;;8.82;100.00
63654;BME280;49809;47.418;19.080;2022-10-26T07:09:59;101134.72;;;8.86;100.00
63654;BME280;49809;47.418;19.080;2022-10-26T07:13:04;101138.69;;;9.13;100.00
63654;BME280;49809;47.418;19.080;2022-10-26T07:16:08;101140.81;;;9.04;100.00
63654;BME280;49809;47.418;19.080;2022-10-26T07:19:13;101140.78;;;9.41;100.00
63654;BME280;49809;47.418;19.080;2022-10-26T07:22:16;101143.00;;;8.89;100.00
63654;BME280;49809;47.418;19.080;2022-10-26T07:25:24;101145.06;;;9.24;100.00
63654;BME280;49809;47.418;19.080;2022-10-26T07:28:31;101143.28;;;9.36;100.00
63654;BME280;49809;47.418;19.080;2022-10-26T07:31:36;101152.66;;;9.50;100.00
63654;BME280;49809;47.418;19.080;2022-10-26T07:35:26;101147.09;;;9.22;100.00
63654;BME280;49809;47.418;19.080;2022-10-26T07:38:32;101154.06;;;9.16;100.00
63654;BME280;49809;47.418;19.080;2022-10-26T07:41:38;101158.84;;;9.07;100.00
63654;BME280;49809;47.418;19.080;2022-10-26T07:44:41;101156.84;;;9.57;100.00
63654;BME280;49809;47.418;19.080;2022-10-26T07:47:44;101158.53;;;9.82;100.00
63654;BME280;49809;47.418;19.080;2022-10-26T07:50:47;101156.63;;;10.00;100.00
63654;BME280;49809;47.418;19.080;2022-10-26T07:54:11;101155.91;;;9.15;100.00
63654;BME280;49809;47.418;19.080;2022-10-26T07:57:19;101158.87;;;9.55;100.00
63654;BME280;49809;47.418;19.080;2022-10-26T08:00:26;101155.41;;;10.15;100.00
63654;BME280;49809;47.418;19.080;2022-10-26T08:03:30;101158.38;;;10.07;100.00
63654;BME280;49809;47.418;19.080;2022-10-26T08:06:36;101152.69;;;10.33;100.00
63654;BME280;49809;47.418;19.080;2022-10-26T08:09:41;101148.00;;;10.05;100.00
63654;BME280;49809;47.418;19.080;2022-10-26T08:12:45;101143.34;;;9.77;100.00
63654;BME280;49809;47.418;19.080;2022-10-26T08:15:48;101149.34;;;10.37;100.00
63654;BME280;49809;47.418;19.080;2022-10-26T08:18:57;101142.91;;;10.68;100.00
63654;BME280;49809;47.418;19.080;2022-10-26T08:22:00;101148.91;;;9.99;100.00
63654;BME280;49809;47.418;19.080;2022-10-26T08:25:10;101150.75;;;10.63;100.00
63654;BME280;49809;47.418;19.080;2022-10-26T08:28:13;101150.84;;;10.80;100.00
63654;BME280;49809;47.418;19.080;2022-10-26T08:31:22;101163.00;;;10.11;100.00
63654;BME280;49809;47.418;19.080;2022-10-26T08:34:25;101166.44;;;10.12;100.00
63654;BME280;49809;47.418;19.080;2022-10-26T08:37:29;101164.09;;;10.68;100.00
63654;BME280;49809;47.418;19.080;2022-10-26T08:40:37;101163.16;;;10.28;100.00
63654;BME280;49809;47.418;19.080;2022-10-26T08:43:55;101161.56;;;10.38;100.00
63654;BME280;49809;47.418;19.080;2022-10-26T08:47:24;101161.97;;;11.17;100.00
63654;BME280;49809;47.418;19.080;2022-10-26T08:50:36;101160.16;;;10.94;100.00
63654;BME280;49809;47.418;19.080;2022-10-26T08:57:26;101174.59;;;10.63;100.00
63654;BME280;49809;47.418;19.080;2022-10-26T09:00:34;101167.62;;;11.60;100.00
63654;BME280;49809;47.418;19.080;2022-10-26T09:03:37;101166.09;;;11.24;100.00
63654;BME280;49809;47.418;19.080;2022-10-26T09:06:58;101175.59;;;11.89;100.00
63654;BME280;49809;47.418;19.080;2022-10-26T09:23:02;101175.00;;;12.15;100.00
63654;BME280;49809;47.418;19.080;2022-10-26T09:26:13;101182.41;;;12.63;100.00
63654;BME280;49809;47.418;19.080;2022-10-26T09:29:24;101189.94;;;12.21;100.00
63654;BME280;49809;47.418;19.080;2022-10-26T09:32:49;101191.88;;;12.76;100.00
63654;BME280;49809;47.418;19.080;2022-10-26T09:36:01;101191.28;;;12.07;100.00
63654;BME280;49809;47.418;19.080;2022-10-26T09:39:29;101197.66;;;12.39;100.00
63654;BME280;49809;47.418;19.080;2022-10-26T09:46:17;101196.63;;;11.79;100.00
63654;BME280;49809;47.418;19.080;2022-10-26T09:49:29;101198.66;;;12.67;100.00
63654;BME280;49809;47.418;19.080;2022-10-26T09:52:38;101201.31;;;13.05;100.00
63654;BME280;49809;47.418;19.080;2022-10-26T09:56:09;101199.28;;;13.51;100.00
63654;BME280;49809;47.418;19.080;2022-10-26T09:59:23;101200.16;;;14.10;99.35
63654;BME280;49809;47.418;19.080;2022-10-26T10:02:39;101191.38;;;14.36;95.45
63654;BME280;49809;47.418;19.080;2022-10-26T10:05:45;101197.62;;;14.52;96.07
63654;BME280;49809;47.418;19.080;2022-10-26T10:12:18;101200.38;;;14.62;95.53
63654;BME280;49809;47.418;19.080;2022-10-26T10:15:24;101197.00;;;14.13;98.49
63654;BME280;49809;47.418;19.080;2022-10-26T10:18:31;101206.84;;;14.12;100.00
63654;BME280;49809;47.418;19.080;2022-10-26T10:21:44;101210.22;;;14.34;98.63
63654;BME280;49809;47.418;19.080;2022-10-26T10:24:58;101199.72;;;14.50;99.17
63654;BME280;49809;47.418;19.080;2022-10-26T10:28:20;101203.00;;;15.04;97.47
63654;BME280;49809;47.418;19.080;2022-10-26T10:31:32;101196.91;;;15.71;94.10
63654;BME280;49809;47.418;19.080;2022-10-26T10:34:36;101195.00;;;15.56;93.14
63654;BME280;49809;47.418;19.080;2022-10-26T10:37:44;101190.28;;;15.93;89.87
63654;BME280;49809;47.418;19.080;2022-10-26T10:40:50;101188.19;;;16.36;88.65
63654;BME280;49809;47.418;19.080;2022-10-26T10:44:07;101186.03;;;16.28;87.92
63654;BME280;49809;47.418;19.080;2022-10-26T10:47:24;101180.94;;;15.91;90.08
63654;BME280;49809;47.418;19.080;2022-10-26T10:50:28;101186.31;;;16.06;89.28
63654;BME280;49809;47.418;19.080;2022-10-26T10:53:44;101187.62;;;14.74;96.19
63654;BME280;49809;47.418;19.080;2022-10-26T10:56:52;101180.53;;;15.47;95.03
63654;BME280;49809;47.418;19.080;2022-10-26T11:00:09;101181.63;;;14.94;96.77
63654;BME280;49809;47.418;19.080;2022-10-26T11:03:37;101182.28;;;15.21;94.57
63654;BME280;49809;47.418;19.080;2022-10-26T11:06:48;101183.13;;;15.32;94.13
63654;BME280;49809;47.418;19.080;2022-10-26T11:09:56;101177.81;;;15.37;94.49
63654;BME280;49809;47.418;19.080;2022-10-26T11:13:12;101176.91;;;15.73;92.54
63654;BME280;49809;47.418;19.080;2022-10-26T11:16:41;101183.13;;;15.32;95.62
63654;BME280;49809;47.418;19.080;2022-10-26T11:20:14;101176.34;;;15.66;92.50
63654;BME280;49809;47.418;19.080;2022-10-26T11:23:28;101178.91;;;15.46;92.54
63654;BME280;49809;47.418;19.080;2022-10-26T11:26:38;101177.16;;;15.04;97.33
63654;BME280;49809;47.418;19.080;2022-10-26T11:36:17;101177.25;;;15.25;96.83
63654;BME280;49809;47.418;19.080;2022-10-26T11:39:43;101165.63;;;15.51;93.64
63654;BME280;49809;47.418;19.080;2022-10-26T11:46:23;101153.97;;;16.28;90.92
63654;BME280;49809;47.418;19.080;2022-10-26T11:49:56;101153.41;;;16.51;89.11
63654;BME280;49809;47.418;19.080;2022-10-26T11:53:46;101144.06;;;16.48;89.03
63654;BME280;49809;47.418;19.080;2022-10-26T11:56:53;101142.78;;;16.26;90.32
63654;BME280;49809;47.418;19.080;2022-10-26T12:00:08;101143.28;;;16.48;88.62
63654;BME280;49809;47.418;19.080;2022-10-26T12:03:19;101141.97;;;16.30;89.77
63654;BME280;49809;47.418;19.080;2022-10-26T12:06:29;101147.31;;;16.25;90.47
63654;BME280;49809;47.418;19.080;2022-10-26T12:09:57;101139.53;;;15.68;93.42
63654;BME280;49809;47.418;19.080;2022-10-26T12:17:05;101137.94;;;16.13;92.51
63654;BME280;49809;47.418;19.080;2022-10-26T12:23:53;101137.19;;;17.22;85.70
63654;BME280;49809;47.418;19.080;2022-10-26T12:27:04;101131.81;;;17.32;85.62
63654;BME280;49809;47.418;19.080;2022-10-26T12:33:29;101140.59;;;17.87;83.06
63654;BME280;49809;47.418;19.080;2022-10-26T12:43:36;101125.16;;;18.36;80.36
63654;BME280;49809;47.418;19.080;2022-10-26T12:46:45;101126.00;;;17.69;82.63
63654;BME280;49809;47.418;19.080;2022-10-26T12:53:11;101128.87;;;17.77;83.34
63654;BME280;49809;47.418;19.080;2022-10-26T12:56:19;101122.25;;;18.04;82.53
63654;BME280;49809;47.418;19.080;2022-10-26T13:09:26;101115.69;;;17.42;85.17
63654;BME280;49809;47.418;19.080;2022-10-26T13:15:54;101125.22;;;18.31;81.50
63654;BME280;49809;47.418;19.080;2022-10-26T13:18:58;101129.81;;;17.92;82.28
63654;BME280;49809;47.418;19.080;2022-10-26T13:22:04;101129.22;;;18.05;81.47
63654;BME280;49809;47.418;19.080;2022-10-26T13:25:28;101122.16;;;17.80;82.21
63654;BME280;49809;47.418;19.080;2022-10-26T13:34:51;101126.22;;;17.72;83.57
63654;BME280;49809;47.418;19.080;2022-10-26T13:37:54;101132.19;;;17.54;84.79
63654;BME280;49809;47.418;19.080;2022-10-26T13:41:09;101124.72;;;17.61;83.51
63654;BME280;49809;47.418;19.080;2022-10-26T13:44:40;101118.78;;;17.64;83.89
63654;BME280;49809;47.418;19.080;2022-10-26T13:51:34;101129.19;;;17.17;85.88
63654;BME280;49809;47.418;19.080;2022-10-26T13:55:14;101122.22;;;17.21;86.04
63654;BME280;49809;47.418;19.080;2022-10-26T13:58:32;101130.50;;;17.24;85.13
63654;BME280;49809;47.418;19.080;2022-10-26T14:01:37;101132.94;;;17.16;85.49
63654;BME280;49809;47.418;19.080;2022-10-26T14:05:16;101128.69;;;17.10;85.31
63654;BME280;49809;47.418;19.080;2022-10-26T14:08:26;101134.66;;;16.91;87.04
63654;BME280;49809;47.418;19.080;2022-10-26T14:11:58;101130.72;;;16.69;88.13
63654;BME280;49809;47.418;19.080;2022-10-26T14:15:09;101130.72;;;16.64;88.55
63654;BME280;49809;47.418;19.080;2022-10-26T14:18:38;101130.44;;;16.55;89.01
63654;BME280;49809;47.418;19.080;2022-10-26T14:21:44;101129.91;;;16.48;89.56
63654;BME280;49809;47.418;19.080;2022-10-26T14:25:22;101140.62;;;16.28;91.84
63654;BME280;49809;47.418;19.080;2022-10-26T14:28:49;101132.09;;;16.21;92.27
63654;BME280;49809;47.418;19.080;2022-10-26T14:32:44;101139.28;;;16.15;94.48
63654;BME280;49809;47.418;19.080;2022-10-26T14:35:57;101137.12;;;16.12;95.26
63654;BME280;49809;47.418;19.080;2022-10-26T14:39:14;101137.94;;;16.18;94.75
63654;BME280;49809;47.418;19.080;2022-10-26T14:42:34;101137.69;;;16.19;95.21
63654;BME280;49809;47.418;19.080;2022-10-26T14:45:47;101135.28;;;16.13;95.46
63654;BME280;49809;47.418;19.080;2022-10-26T14:49:25;101140.09;;;16.21;94.86
63654;BME280;49809;47.418;19.080;2022-10-26T14:52:39;101137.44;;;16.16;95.02
63654;BME280;49809;47.418;19.080;2022-10-26T14:56:23;101136.38;;;16.12;95.11
63654;BME280;49809;47.418;19.080;2022-10-26T14:59:30;101147.56;;;16.03;95.71
63654;BME280;49809;47.418;19.080;2022-10-26T15:02:36;101147.03;;;15.96;96.51
63654;BME280;49809;47.418;19.080;2022-10-26T15:05:42;101143.28;;;15.87;97.21
63654;BME280;49809;47.418;19.080;2022-10-26T15:09:37;101144.59;;;15.75;98.13
63654;BME280;49809;47.418;19.080;2022-10-26T15:12:40;101141.09;;;15.64;98.73
63654;BME280;49809;47.418;19.080;2022-10-26T15:16:24;101137.91;;;15.57;99.10
63654;BME280;49809;47.418;19.080;2022-10-26T15:19:32;101145.59;;;15.48;99.54
63654;BME280;49809;47.418;19.080;2022-10-26T15:22:44;101153.28;;;15.40;99.82
63654;BME280;49809;47.418;19.080;2022-10-26T15:26:01;101150.31;;;15.31;100.00
63654;BME280;49809;47.418;19.080;2022-10-26T15:32:43;101145.22;;;15.14;100.00
63654;BME280;49809;47.418;19.080;2022-10-26T15:35:49;101156.91;;;15.08;100.00
63654;BME280;49809;47.418;19.080;2022-10-26T15:38:52;101153.13;;;14.99;100.00
63654;BME280;49809;47.418;19.080;2022-10-26T15:41:55;101153.34;;;14.93;100.00
63654;BME280;49809;47.418;19.080;2022-10-26T15:44:58;101164.00;;;14.88;100.00
63654;BME280;49809;47.418;19.080;2022-10-26T15:51:23;101174.34;;;14.79;100.00
63654;BME280;49809;47.418;19.080;2022-10-26T15:54:47;101161.47;;;14.66;100.00
63654;BME280;49809;47.418;19.080;2022-10-26T15:57:50;101166.22;;;14.59;100.00
63654;BME280;49809;47.418;19.080;2022-10-26T16:01:23;101176.34;;;14.57;100.00
63654;BME280;49809;47.418;19.080;2022-10-26T16:04:32;101181.06;;;14.50;100.00
63654;BME280;49809;47.418;19.080;2022-10-26T16:07:35;101187.41;;;14.44;100.00
63654;BME280;49809;47.418;19.080;2022-10-26T16:10:59;101181.00;;;14.40;100.00
63654;BME280;49809;47.418;19.080;2022-10-26T16:14:22;101184.22;;;14.42;100.00
63654;BME280;49809;47.418;19.080;2022-10-26T16:17:28;101183.13;;;14.38;100.00
63654;BME280;49809;47.418;19.080;2022-10-26T16:20:32;101182.53;;;14.35;100.00
63654;BME280;49809;47.418;19.080;2022-10-26T16:23:56;101182.50;;;14.30;100.00
63654;BME280;49809;47.418;19.080;2022-10-26T16:27:03;101194.16;;;14.24;100.00
63654;BME280;49809;47.418;19.080;2022-10-26T16:30:07;101196.28;;;14.22;100.00
63654;BME280;49809;47.418;19.080;2022-10-26T16:33:23;101202.09;;;14.19;100.00
63654;BME280;49809;47.418;19.080;2022-10-26T16:36:31;101205.84;;;14.18;100.00
63654;BME280;49809;47.418;19.080;2022-10-26T16:39:37;101206.84;;;14.12;100.00
63654;BME280;49809;47.418;19.080;2022-10-26T16:42:42;101204.66;;;14.09;100.00
63654;BME280;49809;47.418;19.080;2022-10-26T16:45:47;101210.25;;;14.08;100.00
63654;BME280;49809;47.418;19.080;2022-10-26T16:48:52;101208.88;;;14.05;100.00
63654;BME280;49809;47.418;19.080;2022-10-26T16:52:39;101210.56;;;14.11;100.00
63654;BME280;49809;47.418;19.080;2022-10-26T16:55:44;101211.78;;;13.99;100.00
63654;BME280;49809;47.418;19.080;2022-10-26T16:58:48;101216.78;;;13.95;100.00
63654;BME280;49809;47.418;19.080;2022-10-26T17:01:55;101213.56;;;13.93;100.00
63654;BME280;49809;47.418;19.080;2022-10-26T17:05:01;101207.16;;;13.89;100.00
63654;BME280;49809;47.418;19.080;2022-10-26T17:08:10;101206.34;;;13.88;100.00
63654;BME280;49809;47.418;19.080;2022-10-26T17:11:16;101208.97;;;13.83;100.00
63654;BME280;49809;47.418;19.080;2022-10-26T17:14:20;101210.91;;;13.93;100.00
63654;BME280;49809;47.418;19.080;2022-10-26T17:17:33;101218.78;;;13.83;100.00
63654;BME280;49809;47.418;19.080;2022-10-26T17:20:50;101217.88;;;13.99;100.00
63654;BME280;49809;47.418;19.080;2022-10-26T17:24:00;101224.13;;;13.83;100.00
63654;BME280;49809;47.418;19.080;2022-10-26T17:27:05;101229.13;;;13.79;100.00
63654;BME280;49809;47.418;19.080;2022-10-26T17:30:10;101235.88;;;13.87;100.00
63654;BME280;49809;47.418;19.080;2022-10-26T17:33:16;101229.91;;;13.80;100.00
63654;BME280;49809;47.418;19.080;2022-10-26T17:36:22;101237.84;;;13.75;100.00
63654;BME280;49809;47.418;19.080;2022-10-26T17:39:29;101238.34;;;13.72;100.00
63654;BME280;49809;47.418;19.080;2022-10-26T17:42:32;101239.34;;;13.66;100.00
63654;BME280;49809;47.418;19.080;2022-10-26T17:45:39;101248.94;;;13.67;100.00
63654;BME280;49809;47.418;19.080;2022-10-26T17:48:45;101253.72;;;13.65;100.00
63654;BME280;49809;47.418;19.080;2022-10-26T17:51:49;101255.00;;;13.62;100.00
63654;BME280;49809;47.418;19.080;2022-10-26T17:54:51;101260.81;;;13.59;100.00
63654;BME280;49809;47.418;19.080;2022-10-26T17:57:56;101259.03;;;13.65;100.00
63654;BME280;49809;47.418;19.080;2022-10-26T18:01:05;101257.91;;;13.61;100.00
63654;BME280;49809;47.418;19.080;2022-10-26T18:04:52;101263.97;;;13.56;100.00
63654;BME280;49809;47.418;19.080;2022-10-26T18:07:59;101273.75;;;13.51;100.00
63654;BME280;49809;47.418;19.080;2022-10-26T18:11:05;101276.09;;;13.47;100.00
63654;BME280;49809;47.418;19.080;2022-10-26T18:14:13;101266.19;;;13.42;100.00
63654;BME280;49809;47.418;19.080;2022-10-26T18:17:18;101262.19;;;13.40;100.00
63654;BME280;49809;47.418;19.080;2022-10-26T18:20:23;101271.88;;;13.29;100.00
63654;BME280;49809;47.418;19.080;2022-10-26T18:23:29;101277.63;;;13.21;100.00
63654;BME280;49809;47.418;19.080;2022-10-26T18:26:51;101279.62;;;13.14;100.00